sensor_id;sensor_type;location;lat;lon;timestamp;temperature;humidity
19330;DHT22;9799;48.214;16.388;2023-05-01T00:00:30;12.40;99.90
19330;DHT22;9799;48.214;16.388;2023-05-01T00:03:52;12.40;99.90
19330;DHT22;9799;48.214;16.388;2023-05-01T00:07:13;12.50;99.90
19330;DHT22;9799;48.214;16.388;2023-05-01T00:10:35;12.50;99.90
19330;DHT22;9799;48.214;16.388;2023-05-01T00:13:57;12.40;99.90
19330;DHT22;9799;48.214;16.388;2023-05-01T00:17:19;12.30;99.90
19330;DHT22;9799;48.214;16.388;2023-05-01T00:20:41;12.40;99.90
19330;DHT22;9799;48.214;16.388;2023-05-01T00:24:03;12.40;99.90
19330;DHT22;9799;48.214;16.388;2023-05-01T00:27:24;12.40;99.90
19330;DHT22;9799;48.214;16.388;2023-05-01T00:30:46;12.30;99.90
19330;DHT22;9799;48.214;16.388;2023-05-01T00:34:08;12.10;99.90
19330;DHT22;9799;48.214;16.388;2023-05-01T00:37:29;12.10;99.90
19330;DHT22;9799;48.214;16.388;2023-05-01T00:40:50;12.10;99.90
19330;DHT22;9799;48.214;16.388;2023-05-01T00:44:12;12.10;99.90
19330;DHT22;9799;48.214;16.388;2023-05-01T00:47:36;12.20;99.90
19330;DHT22;9799;48.214;16.388;2023-05-01T00:50:57;12.10;99.90
19330;DHT22;9799;48.214;16.388;2023-05-01T00:54:20;12.10;99.90
19330;DHT22;9799;48.214;16.388;2023-05-01T00:57:42;12.10;99.90
19330;DHT22;9799;48.214;16.388;2023-05-01T01:01:03;12.10;99.90
19330;DHT22;9799;48.214;16.388;2023-05-01T01:04:26;12.20;99.90
19330;DHT22;9799;48.214;16.388;2023-05-01T01:07:58;12.10;99.90
19330;DHT22;9799;48.214;16.388;2023-05-01T01:11:29;12.10;99.90
19330;DHT22;9799;48.214;16.388;2023-05-01T01:14:58;12.00;99.90
19330;DHT22;9799;48.214;16.388;2023-05-01T01:18:29;11.90;99.90
19330;DHT22;9799;48.214;16.388;2023-05-01T01:21:57;11.90;99.90
19330;DHT22;9799;48.214;16.388;2023-05-01T01:25:54;12.00;99.90
19330;DHT22;9799;48.214;16.388;2023-05-01T01:29:38;12.00;99.90
19330;DHT22;9799;48.214;16.388;2023-05-01T01:33:34;12.00;99.90
19330;DHT22;9799;48.214;16.388;2023-05-01T01:37:01;12.00;99.90
19330;DHT22;9799;48.214;16.388;2023-05-01T01:40:26;12.00;99.90
19330;DHT22;9799;48.214;16.388;2023-05-01T01:44:02;11.90;99.90
19330;DHT22;9799;48.214;16.388;2023-05-01T01:47:26;11.70;99.90
19330;DHT22;9799;48.214;16.388;2023-05-01T01:50:52;11.80;99.90
19330;DHT22;9799;48.214;16.388;2023-05-01T01:54:16;11.80;99.90
19330;DHT22;9799;48.214;16.388;2023-05-01T01:57:40;11.70;99.90
19330;DHT22;9799;48.214;16.388;2023-05-01T02:01:03;11.70;99.90
19330;DHT22;9799;48.214;16.388;2023-05-01T02:04:26;11.70;99.90
19330;DHT22;9799;48.214;16.388;2023-05-01T02:07:49;11.70;99.90
19330;DHT22;9799;48.214;16.388;2023-05-01T02:11:12;11.60;99.90
19330;DHT22;9799;48.214;16.388;2023-05-01T02:14:36;11.40;99.90
19330;DHT22;9799;48.214;16.388;2023-05-01T02:17:58;11.50;99.90
19330;DHT22;9799;48.214;16.388;2023-05-01T02:21:23;11.60;99.90
19330;DHT22;9799;48.214;16.388;2023-05-01T02:24:48;11.50;99.90
19330;DHT22;9799;48.214;16.388;2023-05-01T02:28:12;11.60;99.90
19330;DHT22;9799;48.214;16.388;2023-05-01T02:31:33;11.60;99.90
19330;DHT22;9799;48.214;16.388;2023-05-01T02:34:54;11.60;99.90
19330;DHT22;9799;48.214;16.388;2023-05-01T02:38:16;11.50;99.90
19330;DHT22;9799;48.214;16.388;2023-05-01T02:41:40;11.50;99.90
19330;DHT22;9799;48.214;16.388;2023-05-01T02:45:04;11.40;99.90
19330;DHT22;9799;48.214;16.388;2023-05-01T02:48:27;11.40;99.90
19330;DHT22;9799;48.214;16.388;2023-05-01T02:51:49;11.50;99.90
19330;DHT22;9799;48.214;16.388;2023-05-01T02:55:11;11.50;99.90
19330;DHT22;9799;48.214;16.388;2023-05-01T02:58:34;11.50;99.90
19330;DHT22;9799;48.214;16.388;2023-05-01T03:01:55;11.40;99.90
19330;DHT22;9799;48.214;16.388;2023-05-01T03:05:17;11.50;99.90
19330;DHT22;9799;48.214;16.388;2023-05-01T03:08:38;11.40;99.90
19330;DHT22;9799;48.214;16.388;2023-05-01T03:11:59;11.20;99.90
19330;DHT22;9799;48.214;16.388;2023-05-01T03:15:22;11.30;99.90
19330;DHT22;9799;48.214;16.388;2023-05-01T03:18:43;11.30;99.90
19330;DHT22;9799;48.214;16.388;2023-05-01T03:22:04;11.30;99.90
19330;DHT22;9799;48.214;16.388;2023-05-01T03:25:26;11.30;99.90
19330;DHT22;9799;48.214;16.388;2023-05-01T03:28:47;11.30;99.90
19330;DHT22;9799;48.214;16.388;2023-05-01T03:32:09;11.30;99.90
19330;DHT22;9799;48.214;16.388;2023-05-01T03:35:31;11.20;99.90
19330;DHT22;9799;48.214;16.388;2023-05-01T03:38:52;11.20;99.90
19330;DHT22;9799;48.214;16.388;2023-05-01T03:42:13;11.30;99.90
19330;DHT22;9799;48.214;16.388;2023-05-01T03:45:34;11.20;99.90
19330;DHT22;9799;48.214;16.388;2023-05-01T03:48:57;11.20;99.90
19330;DHT22;9799;48.214;16.388;2023-05-01T03:52:18;11.30;99.90
19330;DHT22;9799;48.214;16.388;2023-05-01T03:55:39;11.30;99.90
19330;DHT22;9799;48.214;16.388;2023-05-01T03:59:01;11.10;99.90
19330;DHT22;9799;48.214;16.388;2023-05-01T04:02:23;11.00;99.90
19330;DHT22;9799;48.214;16.388;2023-05-01T04:05:45;11.10;99.90
19330;DHT22;9799;48.214;16.388;2023-05-01T04:09:07;11.20;99.90
19330;DHT22;9799;48.214;16.388;2023-05-01T04:12:28;11.20;99.90
19330;DHT22;9799;48.214;16.388;2023-05-01T04:15:49;11.10;99.90
19330;DHT22;9799;48.214;16.388;2023-05-01T04:19:10;11.10;99.90
19330;DHT22;9799;48.214;16.388;2023-05-01T04:22:33;11.00;99.90
19330;DHT22;9799;48.214;16.388;2023-05-01T04:25:54;11.10;99.90
19330;DHT22;9799;48.214;16.388;2023-05-01T04:29:15;11.00;99.90
19330;DHT22;9799;48.214;16.388;2023-05-01T04:32:36;11.00;99.90
19330;DHT22;9799;48.214;16.388;2023-05-01T04:35:58;11.10;99.90
19330;DHT22;9799;48.214;16.388;2023-05-01T04:39:20;11.00;99.90
19330;DHT22;9799;48.214;16.388;2023-05-01T04:42:42;10.90;99.90
19330;DHT22;9799;48.214;16.388;2023-05-01T04:46:03;10.90;99.90
19330;DHT22;9799;48.214;16.388;2023-05-01T04:49:24;11.00;99.90
19330;DHT22;9799;48.214;16.388;2023-05-01T04:52:45;11.10;99.90
19330;DHT22;9799;48.214;16.388;2023-05-01T04:56:08;11.10;99.90
19330;DHT22;9799;48.214;16.388;2023-05-01T04:59:29;11.20;99.90
19330;DHT22;9799;48.214;16.388;2023-05-01T05:02:50;11.10;99.90
19330;DHT22;9799;48.214;16.388;2023-05-01T05:06:11;11.10;99.90
19330;DHT22;9799;48.214;16.388;2023-05-01T05:09:33;11.20;99.90
19330;DHT22;9799;48.214;16.388;2023-05-01T05:12:55;11.10;99.90
19330;DHT22;9799;48.214;16.388;2023-05-01T05:16:17;11.20;99.90
19330;DHT22;9799;48.214;16.388;2023-05-01T05:19:38;11.10;99.90
19330;DHT22;9799;48.214;16.388;2023-05-01T05:23:00;10.90;99.90
19330;DHT22;9799;48.214;16.388;2023-05-01T05:26:21;10.90;99.90
19330;DHT22;9799;48.214;16.388;2023-05-01T05:29:46;10.90;99.90
19330;DHT22;9799;48.214;16.388;2023-05-01T05:33:07;11.10;99.90
19330;DHT22;9799;48.214;16.388;2023-05-01T05:36:28;11.30;99.90
19330;DHT22;9799;48.214;16.388;2023-05-01T05:39:50;11.70;99.90
19330;DHT22;9799;48.214;16.388;2023-05-01T05:43:11;11.80;99.90
19330;DHT22;9799;48.214;16.388;2023-05-01T05:46:34;11.70;99.90
19330;DHT22;9799;48.214;16.388;2023-05-01T05:49:55;11.90;99.90
19330;DHT22;9799;48.214;16.388;2023-05-01T05:53:16;12.20;99.90
19330;DHT22;9799;48.214;16.388;2023-05-01T05:56:38;12.30;99.90
19330;DHT22;9799;48.214;16.388;2023-05-01T05:59:59;12.40;99.90
19330;DHT22;9799;48.214;16.388;2023-05-01T06:03:22;12.40;99.90
19330;DHT22;9799;48.214;16.388;2023-05-01T06:06:43;12.20;99.90
19330;DHT22;9799;48.214;16.388;2023-05-01T06:10:05;12.20;99.90
19330;DHT22;9799;48.214;16.388;2023-05-01T06:13:26;12.30;99.90
19330;DHT22;9799;48.214;16.388;2023-05-01T06:16:47;12.30;99.90
19330;DHT22;9799;48.214;16.388;2023-05-01T06:20:11;12.50;99.90
19330;DHT22;9799;48.214;16.388;2023-05-01T06:23:33;12.70;99.90
19330;DHT22;9799;48.214;16.388;2023-05-01T06:26:54;12.80;99.90
19330;DHT22;9799;48.214;16.388;2023-05-01T06:30:15;12.80;99.90
19330;DHT22;9799;48.214;16.388;2023-05-01T06:33:38;13.10;99.90
19330;DHT22;9799;48.214;16.388;2023-05-01T06:37:01;13.10;99.90
19330;DHT22;9799;48.214;16.388;2023-05-01T06:40:23;13.00;99.90
19330;DHT22;9799;48.214;16.388;2023-05-01T06:43:45;13.10;99.90
19330;DHT22;9799;48.214;16.388;2023-05-01T06:47:06;13.30;99.90
19330;DHT22;9799;48.214;16.388;2023-05-01T06:50:27;13.50;99.90
19330;DHT22;9799;48.214;16.388;2023-05-01T06:53:50;13.30;99.90
19330;DHT22;9799;48.214;16.388;2023-05-01T06:57:11;13.20;99.90
19330;DHT22;9799;48.214;16.388;2023-05-01T07:00:33;13.30;99.90
19330;DHT22;9799;48.214;16.388;2023-05-01T07:03:54;13.40;99.90
19330;DHT22;9799;48.214;16.388;2023-05-01T07:07:15;13.50;99.90
19330;DHT22;9799;48.214;16.388;2023-05-01T07:10:37;13.80;99.90
19330;DHT22;9799;48.214;16.388;2023-05-01T07:13:59;13.80;99.90
19330;DHT22;9799;48.214;16.388;2023-05-01T07:17:21;13.30;99.90
19330;DHT22;9799;48.214;16.388;2023-05-01T07:20:42;13.50;99.90
19330;DHT22;9799;48.214;16.388;2023-05-01T07:24:04;13.50;99.90
19330;DHT22;9799;48.214;16.388;2023-05-01T07:27:26;13.60;99.90
19330;DHT22;9799;48.214;16.388;2023-05-01T07:30:48;13.60;99.90
19330;DHT22;9799;48.214;16.388;2023-05-01T07:34:10;13.40;99.90
19330;DHT22;9799;48.214;16.388;2023-05-01T07:37:31;13.60;99.90
19330;DHT22;9799;48.214;16.388;2023-05-01T07:40:53;13.80;99.90
19330;DHT22;9799;48.214;16.388;2023-05-01T07:44:17;13.80;99.90
19330;DHT22;9799;48.214;16.388;2023-05-01T07:47:38;13.70;99.90
19330;DHT22;9799;48.214;16.388;2023-05-01T07:51:01;13.90;99.90
19330;DHT22;9799;48.214;16.388;2023-05-01T07:54:22;14.10;99.90
19330;DHT22;9799;48.214;16.388;2023-05-01T07:57:43;14.10;99.90
19330;DHT22;9799;48.214;16.388;2023-05-01T08:01:06;14.00;99.90
19330;DHT22;9799;48.214;16.388;2023-05-01T08:04:28;14.10;99.90
19330;DHT22;9799;48.214;16.388;2023-05-01T08:07:49;14.30;99.90
19330;DHT22;9799;48.214;16.388;2023-05-01T08:11:10;14.50;99.90
19330;DHT22;9799;48.214;16.388;2023-05-01T08:14:31;14.90;99.90
19330;DHT22;9799;48.214;16.388;2023-05-01T08:17:54;15.00;99.90
19330;DHT22;9799;48.214;16.388;2023-05-01T08:21:15;14.80;99.90
19330;DHT22;9799;48.214;16.388;2023-05-01T08:24:37;15.10;99.90
19330;DHT22;9799;48.214;16.388;2023-05-01T08:27:59;15.10;99.90
19330;DHT22;9799;48.214;16.388;2023-05-01T08:31:20;15.20;99.90
19330;DHT22;9799;48.214;16.388;2023-05-01T08:34:45;15.60;99.90
19330;DHT22;9799;48.214;16.388;2023-05-01T08:38:06;15.50;99.90
19330;DHT22;9799;48.214;16.388;2023-05-01T08:41:27;15.40;99.90
19330;DHT22;9799;48.214;16.388;2023-05-01T08:44:51;15.70;99.90
19330;DHT22;9799;48.214;16.388;2023-05-01T08:48:15;15.80;99.90
19330;DHT22;9799;48.214;16.388;2023-05-01T08:51:38;15.80;99.90
19330;DHT22;9799;48.214;16.388;2023-05-01T08:55:01;16.00;99.90
19330;DHT22;9799;48.214;16.388;2023-05-01T08:58:24;16.00;99.90
19330;DHT22;9799;48.214;16.388;2023-05-01T09:01:45;16.20;99.90
19330;DHT22;9799;48.214;16.388;2023-05-01T09:05:07;16.20;99.90
19330;DHT22;9799;48.214;16.388;2023-05-01T09:08:30;16.30;99.90
19330;DHT22;9799;48.214;16.388;2023-05-01T09:11:52;16.60;99.90
19330;DHT22;9799;48.214;16.388;2023-05-01T09:15:13;16.80;99.90
19330;DHT22;9799;48.214;16.388;2023-05-01T09:18:35;16.80;99.90
19330;DHT22;9799;48.214;16.388;2023-05-01T09:21:57;16.90;99.90
19330;DHT22;9799;48.214;16.388;2023-05-01T09:25:21;17.20;99.90
19330;DHT22;9799;48.214;16.388;2023-05-01T09:28:43;17.30;99.90
19330;DHT22;9799;48.214;16.388;2023-05-01T09:32:15;17.30;99.90
19330;DHT22;9799;48.214;16.388;2023-05-01T09:35:50;17.30;99.90
19330;DHT22;9799;48.214;16.388;2023-05-01T09:39:21;17.50;99.90
19330;DHT22;9799;48.214;16.388;2023-05-01T09:42:50;17.30;99.90
19330;DHT22;9799;48.214;16.388;2023-05-01T09:46:11;17.60;99.90
19330;DHT22;9799;48.214;16.388;2023-05-01T09:49:43;17.70;99.90
19330;DHT22;9799;48.214;16.388;2023-05-01T09:53:06;17.80;99.90
19330;DHT22;9799;48.214;16.388;2023-05-01T09:56:29;17.90;99.90
19330;DHT22;9799;48.214;16.388;2023-05-01T10:00:02;18.00;99.90
19330;DHT22;9799;48.214;16.388;2023-05-01T10:03:27;17.80;99.90
19330;DHT22;9799;48.214;16.388;2023-05-01T10:06:48;17.90;99.90
19330;DHT22;9799;48.214;16.388;2023-05-01T10:10:17;17.90;99.90
19330;DHT22;9799;48.214;16.388;2023-05-01T10:13:38;17.80;99.90
19330;DHT22;9799;48.214;16.388;2023-05-01T10:17:01;18.00;99.90
19330;DHT22;9799;48.214;16.388;2023-05-01T10:20:27;18.00;99.90
19330;DHT22;9799;48.214;16.388;2023-05-01T10:23:48;18.00;99.90
19330;DHT22;9799;48.214;16.388;2023-05-01T10:27:11;18.10;99.90
19330;DHT22;9799;48.214;16.388;2023-05-01T10:30:33;18.10;99.90
19330;DHT22;9799;48.214;16.388;2023-05-01T10:33:57;18.10;99.90
19330;DHT22;9799;48.214;16.388;2023-05-01T10:37:23;18.30;99.90
19330;DHT22;9799;48.214;16.388;2023-05-01T10:40:47;18.50;99.90
19330;DHT22;9799;48.214;16.388;2023-05-01T10:44:22;18.50;99.90
19330;DHT22;9799;48.214;16.388;2023-05-01T10:47:43;18.80;99.90
19330;DHT22;9799;48.214;16.388;2023-05-01T10:51:11;18.70;99.90
19330;DHT22;9799;48.214;16.388;2023-05-01T10:54:33;18.90;99.90
19330;DHT22;9799;48.214;16.388;2023-05-01T10:57:54;18.50;99.90
19330;DHT22;9799;48.214;16.388;2023-05-01T11:01:29;18.50;99.90
19330;DHT22;9799;48.214;16.388;2023-05-01T11:04:51;18.70;99.90
19330;DHT22;9799;48.214;16.388;2023-05-01T11:08:30;19.00;99.90
19330;DHT22;9799;48.214;16.388;2023-05-01T11:11:51;19.10;99.90
19330;DHT22;9799;48.214;16.388;2023-05-01T11:15:24;18.80;99.90
19330;DHT22;9799;48.214;16.388;2023-05-01T11:18:46;18.90;99.90
19330;DHT22;9799;48.214;16.388;2023-05-01T11:22:11;19.20;99.90
19330;DHT22;9799;48.214;16.388;2023-05-01T11:25:34;19.10;99.90
19330;DHT22;9799;48.214;16.388;2023-05-01T11:28:57;19.00;99.90
19330;DHT22;9799;48.214;16.388;2023-05-01T11:32:23;18.80;99.90
19330;DHT22;9799;48.214;16.388;2023-05-01T11:35:45;18.80;99.90
19330;DHT22;9799;48.214;16.388;2023-05-01T11:39:17;18.90;99.90
19330;DHT22;9799;48.214;16.388;2023-05-01T11:42:39;19.00;99.90
19330;DHT22;9799;48.214;16.388;2023-05-01T11:46:01;18.90;99.90
19330;DHT22;9799;48.214;16.388;2023-05-01T11:49:26;18.90;99.90
19330;DHT22;9799;48.214;16.388;2023-05-01T11:52:48;19.10;99.90
19330;DHT22;9799;48.214;16.388;2023-05-01T11:56:18;19.40;99.90
19330;DHT22;9799;48.214;16.388;2023-05-01T11:59:45;19.30;99.50
19330;DHT22;9799;48.214;16.388;2023-05-01T12:03:07;19.10;99.90
19330;DHT22;9799;48.214;16.388;2023-05-01T12:06:35;19.50;99.40
19330;DHT22;9799;48.214;16.388;2023-05-01T12:09:59;19.40;99.40
19330;DHT22;9799;48.214;16.388;2023-05-01T12:13:20;19.40;99.60
19330;DHT22;9799;48.214;16.388;2023-05-01T12:16:43;19.40;99.70
19330;DHT22;9799;48.214;16.388;2023-05-01T12:20:06;19.10;99.90
19330;DHT22;9799;48.214;16.388;2023-05-01T12:23:32;19.30;99.70
19330;DHT22;9799;48.214;16.388;2023-05-01T12:26:59;19.30;99.80
19330;DHT22;9799;48.214;16.388;2023-05-01T12:30:24;19.50;99.40
19330;DHT22;9799;48.214;16.388;2023-05-01T12:33:53;19.80;99.10
19330;DHT22;9799;48.214;16.388;2023-05-01T12:37:15;19.80;98.40
19330;DHT22;9799;48.214;16.388;2023-05-01T12:40:37;19.70;97.90
19330;DHT22;9799;48.214;16.388;2023-05-01T12:43:59;19.70;97.60
19330;DHT22;9799;48.214;16.388;2023-05-01T12:47:20;19.30;98.20
19330;DHT22;9799;48.214;16.388;2023-05-01T12:50:43;19.40;98.40
19330;DHT22;9799;48.214;16.388;2023-05-01T12:54:05;19.40;99.10
19330;DHT22;9799;48.214;16.388;2023-05-01T12:57:26;19.70;98.60
19330;DHT22;9799;48.214;16.388;2023-05-01T13:00:48;19.80;97.80
19330;DHT22;9799;48.214;16.388;2023-05-01T13:04:10;19.80;97.80
19330;DHT22;9799;48.214;16.388;2023-05-01T13:07:33;19.60;97.70
19330;DHT22;9799;48.214;16.388;2023-05-01T13:10:56;19.80;97.90
19330;DHT22;9799;48.214;16.388;2023-05-01T13:14:17;19.80;97.80
19330;DHT22;9799;48.214;16.388;2023-05-01T13:17:38;19.80;98.10
19330;DHT22;9799;48.214;16.388;2023-05-01T13:21:07;19.90;97.20
19330;DHT22;9799;48.214;16.388;2023-05-01T13:24:38;20.00;97.10
19330;DHT22;9799;48.214;16.388;2023-05-01T13:28:00;19.70;96.60
19330;DHT22;9799;48.214;16.388;2023-05-01T13:31:21;19.80;96.70
19330;DHT22;9799;48.214;16.388;2023-05-01T13:34:43;19.70;95.70
19330;DHT22;9799;48.214;16.388;2023-05-01T13:38:08;19.80;96.20
19330;DHT22;9799;48.214;16.388;2023-05-01T13:41:32;20.00;96.00
19330;DHT22;9799;48.214;16.388;2023-05-01T13:44:56;19.90;96.00
19330;DHT22;9799;48.214;16.388;2023-05-01T13:48:17;19.80;95.70
19330;DHT22;9799;48.214;16.388;2023-05-01T13:51:41;19.50;96.40
19330;DHT22;9799;48.214;16.388;2023-05-01T13:55:06;19.60;96.20
19330;DHT22;9799;48.214;16.388;2023-05-01T13:58:28;19.50;96.00
19330;DHT22;9799;48.214;16.388;2023-05-01T14:01:50;19.40;97.10
19330;DHT22;9799;48.214;16.388;2023-05-01T14:05:11;19.40;97.40
19330;DHT22;9799;48.214;16.388;2023-05-01T14:08:32;19.70;97.00
19330;DHT22;9799;48.214;16.388;2023-05-01T14:11:54;19.70;97.20
19330;DHT22;9799;48.214;16.388;2023-05-01T14:15:17;19.60;95.90
19330;DHT22;9799;48.214;16.388;2023-05-01T14:18:43;19.80;96.20
19330;DHT22;9799;48.214;16.388;2023-05-01T14:22:06;19.90;95.60
19330;DHT22;9799;48.214;16.388;2023-05-01T14:25:28;20.10;96.20
19330;DHT22;9799;48.214;16.388;2023-05-01T14:28:50;20.10;96.00
19330;DHT22;9799;48.214;16.388;2023-05-01T14:32:14;20.30;95.60
19330;DHT22;9799;48.214;16.388;2023-05-01T14:35:36;20.10;95.50
19330;DHT22;9799;48.214;16.388;2023-05-01T14:38:57;20.10;95.70
19330;DHT22;9799;48.214;16.388;2023-05-01T14:42:18;19.90;95.10
19330;DHT22;9799;48.214;16.388;2023-05-01T14:45:40;20.00;95.60
19330;DHT22;9799;48.214;16.388;2023-05-01T14:49:03;20.10;95.50
19330;DHT22;9799;48.214;16.388;2023-05-01T14:52:25;19.90;96.00
19330;DHT22;9799;48.214;16.388;2023-05-01T14:55:49;19.70;98.10
19330;DHT22;9799;48.214;16.388;2023-05-01T14:59:11;19.90;96.30
19330;DHT22;9799;48.214;16.388;2023-05-01T15:02:32;20.00;95.30
19330;DHT22;9799;48.214;16.388;2023-05-01T15:05:54;19.90;95.80
19330;DHT22;9799;48.214;16.388;2023-05-01T15:09:15;19.80;95.10
19330;DHT22;9799;48.214;16.388;2023-05-01T15:12:37;19.90;95.20
19330;DHT22;9799;48.214;16.388;2023-05-01T15:15:58;19.90;95.50
19330;DHT22;9799;48.214;16.388;2023-05-01T15:19:19;19.90;95.50
19330;DHT22;9799;48.214;16.388;2023-05-01T15:22:42;19.80;95.00
19330;DHT22;9799;48.214;16.388;2023-05-01T15:26:03;19.80;95.00
19330;DHT22;9799;48.214;16.388;2023-05-01T15:29:28;19.80;95.40
19330;DHT22;9799;48.214;16.388;2023-05-01T15:32:49;19.70;95.00
19330;DHT22;9799;48.214;16.388;2023-05-01T15:36:10;19.80;95.20
19330;DHT22;9799;48.214;16.388;2023-05-01T15:39:33;19.60;96.20
19330;DHT22;9799;48.214;16.388;2023-05-01T15:42:54;19.20;98.00
19330;DHT22;9799;48.214;16.388;2023-05-01T15:46:16;19.40;96.50
19330;DHT22;9799;48.214;16.388;2023-05-01T15:49:38;19.50;95.50
19330;DHT22;9799;48.214;16.388;2023-05-01T15:53:00;19.50;95.30
19330;DHT22;9799;48.214;16.388;2023-05-01T15:56:22;19.30;96.30
19330;DHT22;9799;48.214;16.388;2023-05-01T15:59:44;19.00;96.20
19330;DHT22;9799;48.214;16.388;2023-05-01T16:03:09;19.30;96.10
19330;DHT22;9799;48.214;16.388;2023-05-01T16:06:31;19.30;95.60
19330;DHT22;9799;48.214;16.388;2023-05-01T16:09:55;19.30;95.60
19330;DHT22;9799;48.214;16.388;2023-05-01T16:13:17;19.40;95.50
19330;DHT22;9799;48.214;16.388;2023-05-01T16:16:40;19.30;96.20
19330;DHT22;9799;48.214;16.388;2023-05-01T16:20:03;19.30;95.90
19330;DHT22;9799;48.214;16.388;2023-05-01T16:23:29;19.20;96.00
19330;DHT22;9799;48.214;16.388;2023-05-01T16:26:51;19.20;96.50
19330;DHT22;9799;48.214;16.388;2023-05-01T16:30:13;18.70;97.50
19330;DHT22;9799;48.214;16.388;2023-05-01T16:33:35;18.90;97.80
19330;DHT22;9799;48.214;16.388;2023-05-01T16:36:56;18.90;97.50
19330;DHT22;9799;48.214;16.388;2023-05-01T16:40:17;19.00;97.00
19330;DHT22;9799;48.214;16.388;2023-05-01T16:43:38;18.90;97.20
19330;DHT22;9799;48.214;16.388;2023-05-01T16:47:01;19.00;97.30
19330;DHT22;9799;48.214;16.388;2023-05-01T16:50:23;18.90;97.60
19330;DHT22;9799;48.214;16.388;2023-05-01T16:53:45;18.90;97.60
19330;DHT22;9799;48.214;16.388;2023-05-01T16:57:06;18.90;98.30
19330;DHT22;9799;48.214;16.388;2023-05-01T17:00:27;18.80;98.10
19330;DHT22;9799;48.214;16.388;2023-05-01T17:03:50;18.90;98.30
19330;DHT22;9799;48.214;16.388;2023-05-01T17:07:11;18.80;98.60
19330;DHT22;9799;48.214;16.388;2023-05-01T17:10:32;18.80;99.00
19330;DHT22;9799;48.214;16.388;2023-05-01T17:13:54;18.70;99.50
19330;DHT22;9799;48.214;16.388;2023-05-01T17:17:15;18.60;99.40
19330;DHT22;9799;48.214;16.388;2023-05-01T17:20:38;18.60;99.40
19330;DHT22;9799;48.214;16.388;2023-05-01T17:23:59;18.60;99.30
19330;DHT22;9799;48.214;16.388;2023-05-01T17:27:21;18.40;99.90
19330;DHT22;9799;48.214;16.388;2023-05-01T17:30:42;18.40;99.70
19330;DHT22;9799;48.214;16.388;2023-05-01T17:34:03;18.40;99.60
19330;DHT22;9799;48.214;16.388;2023-05-01T17:37:26;18.40;99.90
19330;DHT22;9799;48.214;16.388;2023-05-01T17:40:47;18.40;99.90
19330;DHT22;9799;48.214;16.388;2023-05-01T17:44:08;18.30;99.90
19330;DHT22;9799;48.214;16.388;2023-05-01T17:47:30;18.30;99.90
19330;DHT22;9799;48.214;16.388;2023-05-01T17:50:51;18.30;99.90
19330;DHT22;9799;48.214;16.388;2023-05-01T17:54:16;18.30;99.90
19330;DHT22;9799;48.214;16.388;2023-05-01T17:57:37;18.20;99.90
19330;DHT22;9799;48.214;16.388;2023-05-01T18:00:59;18.20;99.90
19330;DHT22;9799;48.214;16.388;2023-05-01T18:04:21;18.10;99.90
19330;DHT22;9799;48.214;16.388;2023-05-01T18:07:42;18.10;99.90
19330;DHT22;9799;48.214;16.388;2023-05-01T18:11:05;18.00;99.90
19330;DHT22;9799;48.214;16.388;2023-05-01T18:14:28;18.00;99.90
19330;DHT22;9799;48.214;16.388;2023-05-01T18:17:50;18.00;99.90
19330;DHT22;9799;48.214;16.388;2023-05-01T18:21:13;17.90;99.90
19330;DHT22;9799;48.214;16.388;2023-05-01T18:24:35;17.90;99.90
19330;DHT22;9799;48.214;16.388;2023-05-01T18:27:59;17.50;99.90
19330;DHT22;9799;48.214;16.388;2023-05-01T18:31:20;17.70;99.90
19330;DHT22;9799;48.214;16.388;2023-05-01T18:34:41;17.70;99.90
19330;DHT22;9799;48.214;16.388;2023-05-01T18:38:04;17.70;99.90
19330;DHT22;9799;48.214;16.388;2023-05-01T18:41:26;17.60;99.90
19330;DHT22;9799;48.214;16.388;2023-05-01T18:44:49;17.60;99.90
19330;DHT22;9799;48.214;16.388;2023-05-01T18:48:10;17.60;99.90
19330;DHT22;9799;48.214;16.388;2023-05-01T18:51:32;17.60;99.90
19330;DHT22;9799;48.214;16.388;2023-05-01T18:54:53;17.50;99.90
19330;DHT22;9799;48.214;16.388;2023-05-01T18:58:14;17.30;99.90
19330;DHT22;9799;48.214;16.388;2023-05-01T19:01:37;17.20;99.90
19330;DHT22;9799;48.214;16.388;2023-05-01T19:04:59;17.20;99.90
19330;DHT22;9799;48.214;16.388;2023-05-01T19:08:20;17.20;99.90
19330;DHT22;9799;48.214;16.388;2023-05-01T19:11:42;17.10;99.90
19330;DHT22;9799;48.214;16.388;2023-05-01T19:15:04;17.20;99.90
19330;DHT22;9799;48.214;16.388;2023-05-01T19:18:27;17.30;99.90
19330;DHT22;9799;48.214;16.388;2023-05-01T19:21:52;17.30;99.90
19330;DHT22;9799;48.214;16.388;2023-05-01T19:25:15;17.30;99.90
19330;DHT22;9799;48.214;16.388;2023-05-01T19:28:40;17.20;99.90
19330;DHT22;9799;48.214;16.388;2023-05-01T19:32:03;17.20;99.90
19330;DHT22;9799;48.214;16.388;2023-05-01T19:35:26;17.20;99.90
19330;DHT22;9799;48.214;16.388;2023-05-01T19:38:47;17.20;99.90
19330;DHT22;9799;48.214;16.388;2023-05-01T19:42:09;17.20;99.90
19330;DHT22;9799;48.214;16.388;2023-05-01T19:45:31;17.20;99.90
19330;DHT22;9799;48.214;16.388;2023-05-01T19:48:53;17.20;99.90
19330;DHT22;9799;48.214;16.388;2023-05-01T19:52:16;17.20;99.90
19330;DHT22;9799;48.214;16.388;2023-05-01T19:55:38;17.20;99.90
19330;DHT22;9799;48.214;16.388;2023-05-01T19:59:00;17.10;99.90
19330;DHT22;9799;48.214;16.388;2023-05-01T20:02:21;17.10;99.90
19330;DHT22;9799;48.214;16.388;2023-05-01T20:05:42;17.10;99.90
19330;DHT22;9799;48.214;16.388;2023-05-01T20:09:05;17.10;99.90
19330;DHT22;9799;48.214;16.388;2023-05-01T20:12:26;17.10;99.90
19330;DHT22;9799;48.214;16.388;2023-05-01T20:15:49;17.10;99.90
19330;DHT22;9799;48.214;16.388;2023-05-01T20:19:11;17.10;99.90
19330;DHT22;9799;48.214;16.388;2023-05-01T20:22:35;17.00;99.90
19330;DHT22;9799;48.214;16.388;2023-05-01T20:25:58;16.70;99.90
19330;DHT22;9799;48.214;16.388;2023-05-01T20:29:20;16.60;99.90
19330;DHT22;9799;48.214;16.388;2023-05-01T20:32:42;16.70;99.90
19330;DHT22;9799;48.214;16.388;2023-05-01T20:36:04;16.50;99.90
19330;DHT22;9799;48.214;16.388;2023-05-01T20:39:25;16.40;99.90
19330;DHT22;9799;48.214;16.388;2023-05-01T20:42:48;16.40;99.90
19330;DHT22;9799;48.214;16.388;2023-05-01T20:46:09;16.40;99.90
19330;DHT22;9799;48.214;16.388;2023-05-01T20:49:31;16.50;99.90
19330;DHT22;9799;48.214;16.388;2023-05-01T20:52:52;16.40;99.90
19330;DHT22;9799;48.214;16.388;2023-05-01T20:56:14;16.50;99.90
19330;DHT22;9799;48.214;16.388;2023-05-01T20:59:36;16.40;99.90
19330;DHT22;9799;48.214;16.388;2023-05-01T21:02:57;16.30;99.90
19330;DHT22;9799;48.214;16.388;2023-05-01T21:06:19;16.20;99.90
19330;DHT22;9799;48.214;16.388;2023-05-01T21:09:43;16.20;99.90
19330;DHT22;9799;48.214;16.388;2023-05-01T21:13:04;16.20;99.90
19330;DHT22;9799;48.214;16.388;2023-05-01T21:16:27;16.30;99.90
19330;DHT22;9799;48.214;16.388;2023-05-01T21:19:48;16.40;99.90